Latest Weather Observations for Hay Airport

IDN60801

Issued at 7:03 pm EDT Tuesday 21 November 2017 (issued every 30 minutes, with the page automatically refreshed every 10 minutes)

About weather observations | Map of weather stations | Latest weather observations for NSW | Other Formats
Station Details ID: 075019 Name: HAY AIRPORT AWS Lat: -34.54 Lon: 144.83 Height: 92.0 m
Data from the previous 72 hours. | See also: Recent months at Hay Airport
Date/Time
EDT
Temp
°C
App
Temp
°C
Dew
Point
°C
Rel
Hum
%
Delta-T
°C
Wind Press
QNH
hPa
Press
MSL
hPa
Rain since
9am
mm
Dir  Spd
km/h
Gust
km/h
Spd
kts
Gust
kts
21/07:00pm 30.8 25.4 1.2 15 14.6 NE 19 26 10 14 1015.4 1015.1 0.0
21/06:30pm 31.4 26.3 0.7 14 15.0 ENE 17 24 9 13 1015.5 1015.2 0.0
21/06:00pm 31.5 26.0 1.8 15 14.8 NE 20 28 11 15 1015.6 1015.3 0.0
21/05:30pm 32.0 26.0 -3.4 10 16.2 ENE 19 30 10 16 1015.8 1015.5 0.0
21/05:00pm 32.7 26.3 -1.6 11 16.3 E 22 33 12 18 1015.9 1015.6 0.0
21/04:30pm 32.4 27.6 0.5 13 15.7 ESE 15 28 8 15 1016.1 1015.8 0.0
21/04:00pm 32.7 27.0 0.7 13 15.8 ENE 20 37 11 20 1016.2 1015.9 0.0
21/03:30pm 32.9 27.8 2.9 15 15.4 ENE 19 32 10 17 1016.6 1016.3 0.0
21/03:00pm 32.9 27.9 3.8 16 15.1 NE 19 28 10 15 1017.1 1016.8 0.0
21/02:30pm 32.1 27.7 4.8 18 14.4 ENE 17 28 9 15 1017.6 1017.3 0.0
21/02:00pm 31.8 26.2 1.0 14 15.2 NE 20 32 11 17 1018.1 1017.8 0.0
21/01:30pm 31.5 26.5 3.5 17 14.4 NE 19 32 10 17 1018.4 1018.1 0.0
21/01:00pm 31.2 26.6 6.3 21 13.4 ENE 20 32 11 17 1018.9 1018.6 0.0
21/12:30pm 30.4 26.5 7.0 23 12.7 NNE 17 32 9 17 1019.2 1018.9 0.0
21/12:00pm 29.9 26.2 7.8 25 12.1 NE 17 28 9 15 1019.7 1019.4 0.0
21/11:30am 29.0 25.0 9.2 29 11.0 NNE 20 32 11 17 1020.0 1019.8 0.0
21/11:00am 29.0 25.3 10.2 31 10.6 NE 20 30 11 16 1020.2 1020.0 0.0
21/10:30am 28.4 23.9 10.1 32 10.3 NE 24 35 13 19 1020.3 1020.1 0.0
21/10:00am 26.4 21.7 10.5 37 8.9 NNE 26 33 14 18 1020.4 1020.2 0.0
21/09:30am 25.9 20.4 10.5 38 8.6 NNE 30 39 16 21 1020.4 1020.2 0.0
21/09:00am 25.4 20.1 11.2 41 8.0 NNE 30 41 16 22 1020.5 1020.3 0.0
21/08:30am 23.6 17.7 10.6 44 7.2 NE 32 41 17 22 1020.4 1020.2 0.0
21/08:00am 22.5 18.2 10.6 47 6.6 NE 24 39 13 21 1020.2 1020.0 0.0
21/07:30am 21.6 17.2 10.4 49 6.1 NE 24 33 13 18 1020.0 1019.8 0.0
21/07:00am 20.0 16.4 10.4 54 5.2 NE 20 26 11 14 1019.9 1019.7 0.0
21/06:30am 19.5 15.6 9.4 52 5.4 ENE 20 28 11 15 1019.7 1019.4 0.0
21/06:00am 18.6 14.5 8.8 53 5.1 ENE 20 28 11 15 1019.2 1018.9 0.0
21/05:30am 19.5 15.6 8.8 50 5.6 NE 19 24 10 13 1018.9 1018.6 0.0
21/05:00am 18.9 15.0 8.8 52 5.3 ENE 19 26 10 14 1018.5 1018.2 0.0
21/04:30am 18.8 14.9 8.5 51 5.4 ENE 19 24 10 13 1018.4 1018.1 0.0
21/04:00am 20.1 15.9 8.4 47 6.1 ENE 20 28 11 15 1018.4 1018.1 0.0
21/03:30am 18.6 15.7 8.0 50 5.5 ENE 13 17 7 9 1018.3 1018.0 0.0
21/03:00am 16.8 13.7 7.2 53 4.8 ENE 13 15 7 8 1018.2 1017.9 0.0
21/02:30am 16.7 13.9 6.8 52 4.9 ENE 11 13 6 7 1018.3 1018.0 0.0
21/02:00am 15.6 12.6 5.8 52 4.7 E 11 13 6 7 1018.6 1018.3 0.0
21/01:30am 17.7 15.1 6.3 47 5.6 E 9 11 5 6 1018.7 1018.4 0.0
21/01:00am 18.1 15.2 6.3 46 5.8 E 11 13 6 7 1018.9 1018.6 0.0
21/12:30am 18.6 15.6 6.1 44 6.2 E 11 15 6 8 1019.1 1018.8 0.0
21/12:00am 19.4 16.7 5.8 41 6.7 E 9 13 5 7 1019.1 1018.8 0.0
 
Date/Time
EDT
Temp
°C
App
Temp
°C
Dew
Point
°C
Rel
Hum
%
Delta-T
°C
Wind Press
QNH
hPa
Press
MSL
hPa
Rain since
9am
mm
Dir  Spd
km/h
Gust
km/h
Spd
kts
Gust
kts
20/11:30pm 19.7 17.0 5.7 40 6.9 E 9 13 5 7 1019.1 1018.8 0.0
20/11:00pm 20.3 17.3 5.9 39 7.2 E 11 15 6 8 1019.1 1018.8 0.0
20/10:30pm 20.1 17.4 5.7 39 7.2 E 9 11 5 6 1019.1 1018.8 0.0
20/10:00pm 20.0 17.6 5.3 38 7.2 E 7 9 4 5 1019.0 1018.7 0.0
20/09:30pm 22.8 20.0 5.3 32 8.8 E 9 11 5 6 1018.7 1018.4 0.0
20/09:00pm 24.1 21.4 5.5 30 9.4 E 9 9 5 5 1018.4 1018.1 0.0
20/08:30pm 25.6 22.9 5.8 28 10.2 E 9 13 5 7 1018.2 1017.9 0.0
20/08:00pm 27.3 24.2 5.6 25 11.2 E 11 17 6 9 1018.2 1017.9 0.0
20/07:30pm 29.0 24.8 5.8 23 12.2 E 17 26 9 14 1017.9 1017.6 0.0
20/07:00pm 29.7 25.3 6.4 23 12.4 ENE 19 28 10 15 1017.7 1017.4 0.0
20/06:30pm 30.5 27.3 7.0 23 12.7 ENE 13 24 7 13 1017.5 1017.2 0.0
20/06:00pm 30.5 27.2 6.4 22 12.9 E 13 24 7 13 1017.4 1017.1 0.0
20/05:30pm 30.8 26.4 6.6 22 13.0 ENE 19 28 10 15 1017.6 1017.3 0.0
20/05:00pm 30.6 26.0 6.5 22 12.9 NE 20 30 11 16 1017.7 1017.4 0.0
20/04:30pm 31.2 26.6 5.6 20 13.6 ENE 19 32 10 17 1018.0 1017.7 0.0
20/04:00pm 31.6 27.3 8.0 23 13.0 NE 20 30 11 16 1018.3 1018.0 0.0
20/03:30pm 30.4 26.2 8.2 25 12.3 NE 20 32 11 17 1018.6 1018.3 0.0
20/03:00pm 30.6 26.5 7.7 24 12.5 ENE 19 30 10 16 1019.2 1018.9 0.0
20/02:30pm 30.4 26.2 7.6 24 12.5 NE 19 33 10 18 1019.6 1019.3 0.0
20/02:00pm 30.7 27.4 9.6 27 11.9 ENE 17 32 9 17 1019.9 1019.7 0.0
20/01:30pm 30.2 26.4 9.7 28 11.6 ENE 20 28 11 15 1020.4 1020.2 0.0
20/01:00pm 29.8 26.5 10.9 31 10.8 NE 19 33 10 18 1020.7 1020.5 0.0
20/12:30pm 30.0 27.0 10.5 30 11.2 ENE 17 26 9 14 1021.1 1020.9 0.0
20/12:00pm 28.8 25.8 10.5 32 10.4 NNE 17 30 9 16 1021.4 1021.2 0.0
20/11:30am 27.5 23.8 10.2 34 9.7 NE 20 30 11 16 1021.7 1021.5 0.0
20/11:00am 27.2 23.3 10.8 36 9.3 NE 22 32 12 17 1022.0 1021.8 0.0
20/10:30am 25.9 22.1 11.3 40 8.3 NNE 22 32 12 17 1022.2 1022.0 0.0
20/10:00am 25.4 20.0 10.8 40 8.2 NNE 30 37 16 20 1022.3 1022.1 0.0
20/09:30am 24.0 18.2 10.7 43 7.4 NE 32 41 17 22 1022.6 1022.3 0.0
20/09:00am 23.9 18.3 10.2 42 7.5 NE 30 39 16 21 1022.6 1022.3 0.2
20/08:30am 22.8 17.2 10.3 45 6.9 NE 30 41 16 22 1022.4 1022.2 0.2
20/08:00am 21.5 17.6 10.9 51 5.8 NE 22 35 12 19 1022.2 1022.0 0.2
20/07:30am 20.4 17.5 11.1 55 5.1 ENE 17 24 9 13 1021.8 1021.6 0.2
20/07:00am 19.6 16.1 10.9 57 4.7 ENE 20 30 11 16 1021.3 1021.1 0.2
20/06:30am 18.8 14.8 10.6 59 4.4 NE 22 30 12 16 1021.0 1020.8 0.2
20/06:00am 18.7 15.2 10.8 60 4.3 NE 20 28 11 15 1020.4 1020.2 0.2
20/05:30am 18.9 15.3 10.7 59 4.4 ENE 20 26 11 14 1020.1 1019.9 0.2
20/05:00am 19.3 15.8 10.3 56 4.8 ENE 19 26 10 14 1019.8 1019.6 0.2
20/04:30am 20.5 15.7 10.3 52 5.5 ENE 26 33 14 18 1019.5 1019.2 0.2
20/04:00am 20.3 16.4 9.5 50 5.8 ENE 20 33 11 18 1019.3 1019.0 0.2
20/03:30am 20.8 16.5 9.4 48 6.1 E 22 30 12 16 1019.2 1018.9 0.2
20/03:00am 21.0 16.3 9.3 47 6.2 E 24 32 13 17 1018.9 1018.6 0.2
20/02:30am 21.3 17.0 9.2 46 6.5 ENE 22 30 12 16 1018.8 1018.5 0.2
20/02:00am 21.2 17.5 9.4 47 6.3 E 19 24 10 13 1018.9 1018.6 0.2
20/01:30am 19.6 16.6 9.2 51 5.5 E 15 17 8 9 1019.0 1018.7 0.2
20/01:00am 19.6 16.9 8.9 50 5.6 E 13 17 7 9 1018.9 1018.6 0.2
20/12:30am 20.1 17.7 8.8 48 6.0 E 11 13 6 7 1018.9 1018.6 0.2
20/12:00am 21.3 18.6 8.9 45 6.6 E 13 17 7 9 1018.7 1018.4 0.2
 
Date/Time
EDT
Temp
°C
App
Temp
°C
Dew
Point
°C
Rel
Hum
%
Delta-T
°C
Wind Press
QNH
hPa
Press
MSL
hPa
Rain since
9am
mm
Dir  Spd
km/h
Gust
km/h
Spd
kts
Gust
kts
19/11:30pm 21.0 17.8 8.6 45 6.5 E 15 20 8 11 1018.8 1018.5 0.2
19/11:00pm 21.5 17.9 8.4 43 6.9 E 17 20 9 11 1018.7 1018.4 0.2
19/10:30pm 21.6 18.9 8.8 44 6.8 E 13 17 7 9 1018.6 1018.3 0.2
19/10:00pm 22.6 20.2 10.1 45 6.8 ENE 13 20 7 11 1018.5 1018.2 0.2
19/09:30pm 22.3 20.1 10.8 48 6.4 ENE 13 17 7 9 1018.1 1017.8 0.2
19/09:00pm 22.8 21.6 10.3 45 6.9 E 7 7 4 4 1017.7 1017.4 0.2
19/08:30pm 24.6 23.3 10.1 40 8.0 ENE 7 9 4 5 1017.4 1017.1 0.2
19/08:00pm 26.4 23.4 10.5 37 8.9 NE 17 20 9 11 1017.3 1017.0 0.2
19/07:30pm 27.5 24.5 10.7 35 9.5 NE 17 20 9 11 1017.0 1016.7 0.2
19/07:00pm 28.3 24.8 10.9 34 9.9 NE 20 28 11 15 1016.7 1016.4 0.2
19/06:30pm 28.7 25.4 9.4 30 10.8 NE 17 24 9 13 1016.6 1016.3 0.2
19/06:00pm 29.7 25.7 10.3 30 11.0 ENE 22 32 12 17 1016.7 1016.4 0.2
19/05:30pm 29.0 26.0 10.6 32 10.5 ENE 17 24 9 13 1016.7 1016.4 0.2
19/05:00pm 28.0 24.3 10.2 33 10.0 E 20 30 11 16 1016.9 1016.6 0.2
19/04:30pm 29.0 25.0 10.6 32 10.5 ENE 22 30 12 16 1017.0 1016.7 0.2
19/04:00pm 27.9 23.2 10.6 34 9.8 NE 26 37 14 20 1017.1 1016.8 0.2
19/03:30pm 28.3 24.8 12.2 37 9.4 ENE 22 33 12 18 1017.4 1017.1 0.2
19/03:00pm 27.8 23.9 10.9 35 9.6 NE 22 35 12 19 1017.4 1017.1 0.2
19/02:30pm 29.3 25.3 11.8 34 10.2 NE 24 33 13 18 1017.7 1017.4 0.2
19/02:00pm 29.2 24.9 12.2 35 9.9 ENE 26 37 14 20 1017.9 1017.6 0.2
19/01:30pm 28.4 23.8 12.3 37 9.4 ENE 28 41 15 22 1018.3 1018.0 0.2
19/01:00pm 28.1 24.3 12.5 38 9.1 ENE 24 35 13 19 1018.5 1018.2 0.2
19/12:30pm 27.9 23.9 13.1 40 8.7 ENE 26 33 14 18 1018.7 1018.4 0.2
19/12:00pm 27.4 23.9 13.4 42 8.3 NE 24 35 13 19 1019.0 1018.7 0.2
19/11:30am 27.2 23.1 13.9 44 7.9 NNE 28 37 15 20 1019.1 1018.8 0.2
19/11:00am 25.5 21.8 14.0 49 6.8 NE 26 39 14 21 1019.2 1018.9 0.2
19/10:30am 25.1 20.9 14.6 52 6.3 NE 30 41 16 22 1019.2 1018.9 0.2
19/10:00am 24.1 19.7 15.1 57 5.4 NE 32 41 17 22 1019.3 1019.0 0.0
19/09:30am 22.9 18.6 14.5 59 5.0 NE 30 41 16 22 1019.2 1018.9 0.0
19/09:00am 22.1 17.9 14.7 63 4.4 ENE 30 43 16 23 1019.1 1018.8 0.0
19/08:30am 20.9 17.4 14.5 67 3.8 ENE 26 35 14 19 1019.0 1018.7 0.0
19/08:00am 19.7 16.7 14.9 74 2.8 E 24 33 13 18 1018.5 1018.2 0.0
19/07:30am 17.9 16.2 14.8 82 1.8 E 17 24 9 13 1018.1 1017.8 0.0
19/07:00am 16.5 15.0 14.3 87 1.3 E 15 20 8 11 1017.6 1017.3 0.0
19/06:30am 15.2 13.7 14.2 94 0.6 E 15 20 8 11 1017.2 1016.9 0.0
19/06:00am 14.9 13.4 14.3 96 0.3 E 15 20 8 11 1016.9 1016.6 0.0
19/05:30am 14.7 13.2 14.1 96 0.3 E 15 19 8 10 1016.6 1016.3 0.0
19/05:00am 15.0 13.1 14.2 95 0.5 E 17 20 9 11 1016.5 1016.2 0.0
19/04:30am 15.1 13.6 14.3 95 0.5 ESE 15 24 8 13 1016.4 1016.1 0.0
19/04:00am 15.0 13.8 14.0 94 0.6 ESE 13 19 7 10 1016.5 1016.2 0.0
19/03:30am 15.3 14.2 14.3 94 0.6 E 13 17 7 9 1016.5 1016.2 0.0
19/03:00am 15.3 14.2 14.3 94 0.6 ESE 13 17 7 9 1016.4 1016.1 0.0
19/02:30am 14.6 13.6 13.5 93 0.6 ESE 11 15 6 8 1016.4 1016.1 0.0
19/02:00am 15.1 14.1 13.3 89 1.0 ESE 11 13 6 7 1016.5 1016.2 0.0
19/01:30am 16.0 14.7 13.8 87 1.2 E 13 17 7 9 1016.4 1016.1 0.0
19/01:00am 16.2 14.9 13.7 85 1.4 ESE 13 19 7 10 1016.1 1015.8 0.0
19/12:30am 17.0 15.0 13.9 82 1.8 E 17 24 9 13 1016.1 1015.8 0.0
19/12:00am 17.2 15.1 13.7 80 2.0 E 17 22 9 12 1016.1 1015.8 0.0
 
Date/Time
EDT
Temp
°C
App
Temp
°C
Dew
Point
°C
Rel
Hum
%
Delta-T
°C
Wind Press
QNH
hPa
Press
MSL
hPa
Rain since
9am
mm
Dir  Spd
km/h
Gust
km/h
Spd
kts
Gust
kts
18/11:30pm 17.5 14.9 13.8 79 2.1 E 20 30 11 16 1015.7 1015.4 0.0
18/11:00pm 17.6 15.0 13.9 79 2.1 E 20 26 11 14 1015.6 1015.3 0.0
18/10:30pm 17.9 15.5 14.4 80 2.0 E 20 32 11 17 1015.3 1015.0 0.0
18/10:00pm 18.1 15.8 14.6 80 2.0 E 20 28 11 15 1015.0 1014.7 0.0
18/09:30pm 18.3 16.6 14.6 79 2.1 E 17 24 9 13 1014.7 1014.4 0.0
18/09:00pm 18.9 17.2 14.8 77 2.4 ESE 17 20 9 11 1014.4 1014.1 0.0
18/08:30pm 18.8 17.8 14.7 77 2.4 E 13 24 7 13 1014.1 1013.8 0.0
18/08:00pm 19.4 16.2 14.2 72 3.0 E 24 39 13 21 1013.7 1013.4 0.0
18/07:30pm 19.6 15.8 14.8 74 2.8 ENE 28 39 15 21 1013.6 1013.3 0.0

Other Formats:

Comma delimited format used in spreadsheet applications
http://www.bom.gov.au/fwo/IDN60801/IDN60801.94702.axf

JavaScript Object Notation format (JSON) in row-major order
http://www.bom.gov.au/fwo/IDN60801/IDN60801.94702.json